createdAt,value
2017-12-13T00:02:22.422Z,13.47
2017-12-13T00:04:51.529Z,14.30
2017-12-13T00:07:19.662Z,16.70
2017-12-13T00:09:47.802Z,15.17
2017-12-13T00:12:15.954Z,20.87
2017-12-13T00:14:44.093Z,17.90
2017-12-13T00:17:13.017Z,15.63
2017-12-13T00:19:41.162Z,19.20
2017-12-13T00:22:09.304Z,15.87
2017-12-13T00:24:37.438Z,19.87
2017-12-13T00:27:05.594Z,18.13
2017-12-13T00:29:33.734Z,12.13
2017-12-13T00:32:03.401Z,15.93
2017-12-13T00:34:31.537Z,15.23
2017-12-13T00:37:00.453Z,16.43
2017-12-13T00:39:28.597Z,20.27
2017-12-13T00:41:56.756Z,19.77
2017-12-13T00:44:31.664Z,14.90
2017-12-13T00:47:00.580Z,15.47
2017-12-13T00:49:28.741Z,12.47
2017-12-13T00:51:57.648Z,14.37
2017-12-13T00:54:26.564Z,19.30
2017-12-13T00:56:54.693Z,12.70
2017-12-13T00:59:24.268Z,14.50
2017-12-13T01:01:53.162Z,10.10
2017-12-13T01:04:22.101Z,13.50
2017-12-13T01:06:50.977Z,14.57
2017-12-13T01:09:20.705Z,11.13
2017-12-13T01:11:48.829Z,14.93
2017-12-13T01:14:16.974Z,11.50
2017-12-13T01:16:45.953Z,12.57
2017-12-13T01:19:14.097Z,12.47
2017-12-13T01:21:43.152Z,17.60
2017-12-13T01:24:11.299Z,10.40
2017-12-13T01:26:39.449Z,14.27
2017-12-13T01:29:09.356Z,13.97
2017-12-13T01:31:38.206Z,14.00
2017-12-13T01:34:06.360Z,13.43
2017-12-13T01:36:36.102Z,11.83
2017-12-13T01:39:04.255Z,15.23
2017-12-13T01:41:33.141Z,9.40
2017-12-13T01:44:01.302Z,19.53
2017-12-13T01:46:29.454Z,15.07
2017-12-13T01:48:57.577Z,11.03
2017-12-13T01:51:26.496Z,10.47
2017-12-13T01:53:55.813Z,17.10
2017-12-13T01:56:24.520Z,9.10
2017-12-13T01:58:53.389Z,13.57
2017-12-13T02:01:21.543Z,14.90
2017-12-13T02:03:49.668Z,10.70
2017-12-13T02:06:18.804Z,11.20
2017-12-13T02:08:46.944Z,12.53
2017-12-13T02:11:15.089Z,11.73
2017-12-13T02:13:44.933Z,13.30
2017-12-13T02:16:13.939Z,9.43
2017-12-13T02:18:42.833Z,11.90
2017-12-13T02:21:11.744Z,8.63
2017-12-13T02:23:40.640Z,8.10
2017-12-13T02:26:09.543Z,9.27
2017-12-13T02:28:38.441Z,10.57
2017-12-13T02:31:07.352Z,9.73
2017-12-13T02:33:36.245Z,11.00
2017-12-13T02:36:05.177Z,10.30
2017-12-13T02:38:34.138Z,9.43
2017-12-13T02:41:05.586Z,12.00
2017-12-13T02:43:33.726Z,9.33
2017-12-13T02:46:01.873Z,12.83
2017-12-13T02:48:30.032Z,11.37
2017-12-13T02:50:58.140Z,7.80
2017-12-13T02:53:26.312Z,12.00
2017-12-13T02:55:54.424Z,12.60
2017-12-13T02:58:22.561Z,11.80
2017-12-13T03:00:50.719Z,5.93
2017-12-13T03:03:19.604Z,9.50
2017-12-13T03:05:47.740Z,7.40
2017-12-13T03:08:15.891Z,11.30
2017-12-13T03:10:44.786Z,12.33
2017-12-13T03:13:13.685Z,7.70
2017-12-13T03:15:42.609Z,10.97
2017-12-13T03:18:11.518Z,12.20
2017-12-13T03:20:39.645Z,15.50
2017-12-13T03:23:07.789Z,13.30
2017-12-13T03:25:35.915Z,16.73
2017-12-13T03:28:04.076Z,9.83
2017-12-13T03:30:33.374Z,18.97
2017-12-13T03:33:01.517Z,6.93
2017-12-13T03:35:29.659Z,11.30
2017-12-13T03:37:57.786Z,10.47
2017-12-13T03:40:26.806Z,11.50
2017-12-13T03:42:55.537Z,8.87
2017-12-13T03:45:24.421Z,9.20
2017-12-13T03:47:53.317Z,10.53
2017-12-13T03:50:22.919Z,8.67
2017-12-13T03:52:51.687Z,8.77
2017-12-13T03:55:20.677Z,12.00
2017-12-13T03:57:49.705Z,13.30
2017-12-13T04:00:17.861Z,13.37
2017-12-13T04:02:46.000Z,7.67
2017-12-13T04:05:14.149Z,9.70
2017-12-13T04:07:43.990Z,10.53
2017-12-13T04:10:12.928Z,11.20
2017-12-13T04:12:41.060Z,9.50
2017-12-13T04:15:09.208Z,10.57
2017-12-13T04:17:37.336Z,14.67
2017-12-13T04:20:06.835Z,9.97
2017-12-13T04:22:34.965Z,15.93
2017-12-13T04:25:04.411Z,7.20
2017-12-13T04:27:32.548Z,9.87
2017-12-13T04:30:00.689Z,11.03
2017-12-13T04:32:29.601Z,11.00
2017-12-13T04:34:58.504Z,9.33
2017-12-13T04:37:27.416Z,10.27
2017-12-13T04:39:55.542Z,12.60
2017-12-13T04:42:23.700Z,8.23
2017-12-13T04:44:51.818Z,5.87
2017-12-13T04:47:19.978Z,9.10
2017-12-13T04:49:48.825Z,8.70
2017-12-13T04:52:16.962Z,9.00
2017-12-13T04:54:45.090Z,10.37
2017-12-13T04:57:13.277Z,11.93
2017-12-13T04:59:42.757Z,8.03
2017-12-13T05:02:11.801Z,8.03
2017-12-13T05:04:39.950Z,9.87
2017-12-13T05:07:08.095Z,9.00
2017-12-13T05:09:36.229Z,5.67
2017-12-13T05:12:04.623Z,6.47
2017-12-13T05:14:32.758Z,6.73
2017-12-13T05:17:02.520Z,7.43
2017-12-13T05:19:30.644Z,11.23
2017-12-13T05:21:58.796Z,8.13
2017-12-13T05:24:27.709Z,5.73
2017-12-13T05:26:55.849Z,6.57
2017-12-13T05:29:26.010Z,7.13
2017-12-13T05:31:54.881Z,6.10
2017-12-13T05:34:23.798Z,9.53
2017-12-13T05:36:52.700Z,9.40
2017-12-13T05:39:21.637Z,7.33
2017-12-13T05:41:49.764Z,5.70
2017-12-13T05:44:17.941Z,7.33
2017-12-13T05:46:46.058Z,4.70
2017-12-13T05:49:14.991Z,7.90
2017-12-13T05:51:43.103Z,9.30
2017-12-13T05:54:11.236Z,6.50
2017-12-13T05:56:40.154Z,10.50
2017-12-13T05:59:08.283Z,7.63
2017-12-13T06:01:37.004Z,6.77
2017-12-13T06:04:06.309Z,12.53
2017-12-13T06:06:34.473Z,12.13
2017-12-13T06:09:03.201Z,7.10
2017-12-13T06:11:31.337Z,18.20
2017-12-13T06:13:59.466Z,6.70
2017-12-13T06:16:27.608Z,6.03
2017-12-13T06:18:55.791Z,7.20
2017-12-13T06:21:23.929Z,9.40
2017-12-13T06:23:52.072Z,9.10
2017-12-13T06:26:21.045Z,5.53
2017-12-13T06:28:49.196Z,14.23
2017-12-13T06:31:18.472Z,8.37
2017-12-13T06:33:46.609Z,8.70
2017-12-13T06:36:16.900Z,7.67
2017-12-13T06:38:45.037Z,10.73
2017-12-13T06:41:13.929Z,8.23
2017-12-13T06:43:42.096Z,10.03
2017-12-13T06:46:10.228Z,7.50
2017-12-13T06:48:39.156Z,11.93
2017-12-13T06:51:07.273Z,10.10
2017-12-13T06:53:36.290Z,5.57
2017-12-13T06:56:05.037Z,9.53
2017-12-13T06:58:34.403Z,4.80
2017-12-13T07:01:02.562Z,8.50
2017-12-13T07:03:30.670Z,11.57
2017-12-13T07:05:58.908Z,9.17
2017-12-13T07:08:27.805Z,8.70
2017-12-13T07:10:57.635Z,11.17
2017-12-13T07:13:25.757Z,10.60
2017-12-13T07:15:53.897Z,7.60
2017-12-13T07:18:22.801Z,9.37
2017-12-13T07:20:51.704Z,7.60
2017-12-13T07:23:20.653Z,10.63
2017-12-13T07:25:49.668Z,8.60
2017-12-13T07:28:17.833Z,7.13
2017-12-13T07:30:45.989Z,10.67
2017-12-13T07:33:14.133Z,16.03
2017-12-13T07:35:42.281Z,9.00
2017-12-13T07:38:10.443Z,40.67
2017-12-13T07:40:39.350Z,56.63
2017-12-13T07:43:08.261Z,50.37
2017-12-13T07:45:36.405Z,29.63
2017-12-13T07:48:06.917Z,27.73
2017-12-13T07:50:35.052Z,25.50
2017-12-13T07:53:03.986Z,15.83
2017-12-13T07:55:32.154Z,12.83
2017-12-13T07:58:01.072Z,40.50
2017-12-13T08:00:30.551Z,30.30
2017-12-13T08:02:59.950Z,25.03
2017-12-13T08:05:28.074Z,26.43
2017-12-13T08:07:56.988Z,17.67
2017-12-13T08:10:25.890Z,15.10
2017-12-13T08:12:54.801Z,40.10
2017-12-13T08:15:23.414Z,42.93
2017-12-13T08:17:51.578Z,21.07
2017-12-13T08:20:21.641Z,22.20
2017-12-13T08:22:50.713Z,20.83
2017-12-13T08:25:20.198Z,11.50
2017-12-13T08:27:48.325Z,16.10
2017-12-13T08:30:16.468Z,17.40
2017-12-13T08:32:46.748Z,16.53
2017-12-13T08:35:15.644Z,23.50
2017-12-13T08:37:45.301Z,34.43
2017-12-13T08:40:13.487Z,23.30
2017-12-13T08:42:42.197Z,18.90
2017-12-13T08:45:10.912Z,37.93
2017-12-13T08:47:39.079Z,26.13
2017-12-13T08:50:07.993Z,31.27
2017-12-13T08:52:36.108Z,24.13
2017-12-13T08:55:05.032Z,20.67
2017-12-13T08:57:33.552Z,23.10
2017-12-13T09:00:01.670Z,21.83
2017-12-13T09:02:31.132Z,14.73
2017-12-13T09:05:00.115Z,25.70
2017-12-13T09:07:28.285Z,28.10
2017-12-13T09:09:56.452Z,28.90
2017-12-13T09:12:27.343Z,26.07
2017-12-13T09:14:57.174Z,24.17
2017-12-13T09:17:26.102Z,23.07
2017-12-13T09:19:54.308Z,24.33
2017-12-13T09:22:22.457Z,55.90
2017-12-13T09:24:51.356Z,36.80
2017-12-13T09:27:20.283Z,33.23
2017-12-13T09:29:48.407Z,28.50
2017-12-13T09:32:16.568Z,61.43
2017-12-13T09:34:44.724Z,119.60
2017-12-13T09:37:12.880Z,87.37
2017-12-13T09:39:41.023Z,58.10
2017-12-13T09:42:09.162Z,62.60
2017-12-13T09:44:38.073Z,49.77
2017-12-13T09:47:07.213Z,11.80
2017-12-13T09:49:35.347Z,23.77
2017-12-13T09:52:03.524Z,14.03
2017-12-13T09:54:31.649Z,12.07
2017-12-13T09:56:59.796Z,15.13
2017-12-13T09:59:28.609Z,8.23
2017-12-13T10:01:56.739Z,7.27
2017-12-13T10:04:25.893Z,9.83
2017-12-13T10:06:55.411Z,10.73
2017-12-13T10:09:23.554Z,12.83
2017-12-13T10:11:52.281Z,11.60
2017-12-13T10:14:20.445Z,11.57
2017-12-13T10:16:48.580Z,7.40
2017-12-13T10:19:16.741Z,5.67
2017-12-13T10:21:44.856Z,8.10
2017-12-13T10:24:13.002Z,7.70
2017-12-13T10:26:41.155Z,18.80
2017-12-13T10:29:09.303Z,8.00
2017-12-13T10:31:37.886Z,9.60
2017-12-13T10:34:06.029Z,4.73
2017-12-13T10:36:35.007Z,6.50
2017-12-13T10:39:03.133Z,5.97
2017-12-13T10:41:32.979Z,7.93
2017-12-13T10:44:01.991Z,3.57
2017-12-13T10:46:30.157Z,4.57
2017-12-13T10:48:58.270Z,6.13
2017-12-13T10:51:27.478Z,5.20
2017-12-13T10:53:55.597Z,2.63
2017-12-13T10:56:23.736Z,7.43
2017-12-13T10:58:52.299Z,5.20
2017-12-13T11:01:21.164Z,2.37
2017-12-13T11:03:49.309Z,2.87
2017-12-13T11:06:18.112Z,3.23
2017-12-13T11:08:46.266Z,3.80
2017-12-13T11:11:15.970Z,5.00
2017-12-13T11:13:51.237Z,3.47
2017-12-13T11:16:20.797Z,7.00
2017-12-13T11:18:48.942Z,3.60
2017-12-13T11:21:18.799Z,2.97
2017-12-13T11:23:47.721Z,2.90
2017-12-13T11:26:16.610Z,3.53
2017-12-13T11:28:45.710Z,3.57
2017-12-13T11:31:13.862Z,2.90
2017-12-13T11:33:42.008Z,6.67
2017-12-13T11:36:10.133Z,2.90
2017-12-13T11:38:39.048Z,2.20
2017-12-13T11:41:07.970Z,3.50
2017-12-13T11:43:36.203Z,4.20
2017-12-13T11:46:05.791Z,2.70
2017-12-13T11:48:33.909Z,7.90
2017-12-13T11:51:02.081Z,6.40
2017-12-13T11:53:30.196Z,6.03
2017-12-13T11:55:58.334Z,3.30
2017-12-13T11:58:26.463Z,9.07
2017-12-13T12:00:54.616Z,2.37
2017-12-13T12:03:22.772Z,6.20
2017-12-13T12:05:52.246Z,3.10
2017-12-13T12:08:21.363Z,3.07
2017-12-13T12:10:49.513Z,4.60
2017-12-13T12:13:17.640Z,2.83
2017-12-13T12:15:46.536Z,4.20
2017-12-13T12:18:14.684Z,7.43
2017-12-13T12:20:42.819Z,4.03
2017-12-13T12:23:12.337Z,3.63
2017-12-13T12:25:40.486Z,5.90
2017-12-13T12:28:08.640Z,3.20
2017-12-13T12:30:36.764Z,4.97
2017-12-13T12:33:04.929Z,3.60
2017-12-13T12:35:33.475Z,2.70
2017-12-13T12:38:01.676Z,6.13
2017-12-13T12:40:29.820Z,8.70
2017-12-13T12:42:57.954Z,3.00
2017-12-13T12:45:26.097Z,2.80
2017-12-13T12:47:54.242Z,1.70
2017-12-13T12:50:22.390Z,2.63
2017-12-13T12:52:51.361Z,4.60
2017-12-13T12:55:19.485Z,2.23
2017-12-13T12:57:49.285Z,3.07
2017-12-13T13:00:17.417Z,6.60
2017-12-13T13:02:45.570Z,5.80
2017-12-13T13:05:13.743Z,5.17
2017-12-13T13:07:41.886Z,4.67
2017-12-13T13:10:10.060Z,5.43
2017-12-13T13:12:38.213Z,6.17
2017-12-13T13:15:06.361Z,7.10
2017-12-13T13:17:34.494Z,4.27
2017-12-13T13:20:02.649Z,3.20
2017-12-13T13:22:30.798Z,3.40
2017-12-13T13:24:58.944Z,3.20
2017-12-13T13:27:27.082Z,4.30
2017-12-13T13:29:55.242Z,3.00
2017-12-13T13:32:24.161Z,3.47
2017-12-13T13:34:52.323Z,4.03
2017-12-13T13:37:21.231Z,5.30
2017-12-13T13:39:50.185Z,2.70
2017-12-13T13:42:18.321Z,4.33
2017-12-13T13:44:46.437Z,4.30
2017-12-13T13:47:14.604Z,4.00
2017-12-13T13:49:43.517Z,1.80
2017-12-13T13:52:11.669Z,4.83
2017-12-13T13:54:39.812Z,4.57
2017-12-13T13:57:07.974Z,2.30
2017-12-13T13:59:36.848Z,4.33
2017-12-13T14:02:05.767Z,3.03
2017-12-13T14:04:34.654Z,3.10
2017-12-13T14:07:02.868Z,2.33
2017-12-13T14:09:32.309Z,4.47
2017-12-13T14:12:00.492Z,3.23
2017-12-13T14:14:28.618Z,3.57
2017-12-13T14:16:56.758Z,2.17
2017-12-13T14:19:26.222Z,3.03
2017-12-13T14:21:54.361Z,3.20
2017-12-13T14:24:22.499Z,2.90
2017-12-13T14:26:50.653Z,5.17
2017-12-13T14:29:18.797Z,5.10
2017-12-13T14:31:47.697Z,4.40
2017-12-13T14:34:16.878Z,3.60
2017-12-13T14:36:45.035Z,5.33
2017-12-13T14:39:13.195Z,2.67
2017-12-13T14:41:41.327Z,5.57
2017-12-13T14:44:09.474Z,10.10
2017-12-13T14:46:37.598Z,4.50
2017-12-13T14:49:05.749Z,5.63
2017-12-13T14:51:33.881Z,2.57
2017-12-13T14:54:02.041Z,6.20
2017-12-13T14:56:30.175Z,6.20
2017-12-13T14:58:59.094Z,3.60
2017-12-13T15:01:27.248Z,8.33
2017-12-13T15:03:55.391Z,3.60
2017-12-13T15:06:23.509Z,3.00
2017-12-13T15:08:51.652Z,2.60
2017-12-13T15:11:19.780Z,6.30
2017-12-13T15:13:48.859Z,6.70
2017-12-13T15:16:17.046Z,10.03
2017-12-13T15:18:45.170Z,4.90
2017-12-13T15:21:13.329Z,4.13
2017-12-13T15:23:41.482Z,4.47
2017-12-13T15:26:09.637Z,9.70
2017-12-13T15:28:38.533Z,4.17
2017-12-13T15:31:07.404Z,2.80
2017-12-13T15:33:35.537Z,4.50
2017-12-13T15:36:04.455Z,5.43
2017-12-13T15:38:32.643Z,3.47
2017-12-13T15:41:00.802Z,4.70
2017-12-13T15:43:28.921Z,6.20
2017-12-13T15:45:57.052Z,6.10
2017-12-13T15:48:25.935Z,4.13
2017-12-13T15:50:54.061Z,2.93
2017-12-13T15:53:23.541Z,4.90
2017-12-13T15:55:52.420Z,3.10
2017-12-13T15:58:20.577Z,4.53
2017-12-13T16:00:49.486Z,3.77
2017-12-13T16:03:18.378Z,5.73
2017-12-13T16:05:47.288Z,3.33
2017-12-13T16:08:16.235Z,3.30
2017-12-13T16:10:44.376Z,3.40
2017-12-13T16:13:12.526Z,3.00
2017-12-13T16:15:42.371Z,4.03
2017-12-13T16:18:10.517Z,3.03
2017-12-13T16:20:38.674Z,6.30
2017-12-13T16:23:06.800Z,8.47
2017-12-13T16:25:34.956Z,8.20
2017-12-13T16:28:03.111Z,13.87
2017-12-13T16:30:31.283Z,13.97
2017-12-13T16:32:59.412Z,8.97
2017-12-13T16:35:27.590Z,8.23
2017-12-13T16:37:56.469Z,10.80
2017-12-13T16:40:25.392Z,4.80
2017-12-13T16:42:54.368Z,11.63
2017-12-13T16:45:22.493Z,10.27
2017-12-13T16:47:50.661Z,14.70
2017-12-13T16:50:19.581Z,12.93
2017-12-13T16:52:49.251Z,8.20
2017-12-13T16:55:17.377Z,2.47
2017-12-13T16:57:46.286Z,2.77
2017-12-13T17:00:15.176Z,3.40
2017-12-13T17:02:44.154Z,5.47
2017-12-13T17:05:12.251Z,2.60
2017-12-13T17:07:41.151Z,3.80
2017-12-13T17:10:09.292Z,3.67
2017-12-13T17:12:38.218Z,8.00
2017-12-13T17:15:06.360Z,7.17
2017-12-13T17:17:35.290Z,7.53
2017-12-13T17:20:03.424Z,4.57
2017-12-13T17:22:31.593Z,5.50
2017-12-13T17:25:00.481Z,5.40
2017-12-13T17:27:28.624Z,3.90
2017-12-13T17:29:57.518Z,3.10
2017-12-13T17:32:26.461Z,7.60
2017-12-13T17:34:54.608Z,3.17
2017-12-13T17:37:23.510Z,4.10
2017-12-13T17:39:52.411Z,3.30
2017-12-13T17:42:20.563Z,2.53
2017-12-13T17:44:48.704Z,2.83
2017-12-13T17:47:17.634Z,3.93
2017-12-13T17:49:45.763Z,5.40
2017-12-13T17:52:13.909Z,4.50
2017-12-13T17:54:42.061Z,6.67
2017-12-13T17:57:10.993Z,3.73
2017-12-13T17:59:39.129Z,5.53
2017-12-13T18:02:07.246Z,7.13
2017-12-13T18:04:36.249Z,4.53
2017-12-13T18:07:05.178Z,4.67
2017-12-13T18:09:33.825Z,9.10
2017-12-13T18:12:01.980Z,5.43
2017-12-13T18:14:30.138Z,4.80
2017-12-13T18:16:59.031Z,4.17
2017-12-13T18:19:27.194Z,3.37
2017-12-13T18:21:56.896Z,2.90
2017-12-13T18:24:25.065Z,2.53
2017-12-13T18:26:53.207Z,4.20
2017-12-13T18:29:21.351Z,2.97
2017-12-13T18:31:49.524Z,4.40
2017-12-13T18:34:17.666Z,4.30
2017-12-13T18:36:45.879Z,5.03
2017-12-13T18:39:14.032Z,3.43
2017-12-13T18:41:42.224Z,4.27
2017-12-13T18:44:11.143Z,4.40
2017-12-13T18:46:39.306Z,2.10
2017-12-13T18:49:08.202Z,4.67
2017-12-13T18:51:36.363Z,3.03
2017-12-13T18:54:04.512Z,3.97
2017-12-13T18:56:32.660Z,3.20
2017-12-13T18:59:00.811Z,2.20
2017-12-13T19:01:28.970Z,2.40
2017-12-13T19:03:57.121Z,1.90
2017-12-13T19:06:26.963Z,4.77
2017-12-13T19:08:55.858Z,5.33
2017-12-13T19:11:24.799Z,3.23
2017-12-13T19:13:52.971Z,5.80
2017-12-13T19:16:21.102Z,2.60
2017-12-13T19:18:50.030Z,3.23
2017-12-13T19:21:18.945Z,3.30
2017-12-13T19:23:47.107Z,3.23
2017-12-13T19:26:15.279Z,5.47
2017-12-13T19:28:43.434Z,3.57
2017-12-13T19:31:11.579Z,7.40
2017-12-13T19:33:40.515Z,8.37
2017-12-13T19:36:08.647Z,4.20
2017-12-13T19:38:36.782Z,2.27
2017-12-13T19:41:05.516Z,3.00
2017-12-13T19:43:33.711Z,4.93
2017-12-13T19:46:01.880Z,2.83
2017-12-13T19:48:30.798Z,6.33
2017-12-13T19:50:59.909Z,3.43
2017-12-13T19:53:28.036Z,4.43
2017-12-13T19:55:56.999Z,4.37
2017-12-13T19:58:25.181Z,3.40
2017-12-13T20:00:53.354Z,2.33
2017-12-13T20:03:21.492Z,2.40
2017-12-13T20:05:49.711Z,2.67
2017-12-13T20:08:17.850Z,3.70
2017-12-13T20:10:46.538Z,2.10
2017-12-13T20:13:14.782Z,3.17
2017-12-13T20:15:42.947Z,1.70
2017-12-13T20:18:11.841Z,4.20
2017-12-13T20:20:41.526Z,3.03
2017-12-13T20:23:09.697Z,3.50
2017-12-13T20:25:37.843Z,2.17
2017-12-13T20:28:06.775Z,2.57
2017-12-13T20:30:34.909Z,2.80
2017-12-13T20:33:03.072Z,2.13
2017-12-13T20:35:31.203Z,3.30
2017-12-13T20:38:00.946Z,8.50
2017-12-13T20:40:29.114Z,2.23
2017-12-13T20:42:58.059Z,4.13
2017-12-13T20:45:26.204Z,2.13
2017-12-13T20:47:54.387Z,2.50
2017-12-13T20:50:23.314Z,3.87
2017-12-13T20:52:51.547Z,4.20
2017-12-13T20:55:19.708Z,3.07
2017-12-13T20:57:47.874Z,2.70
2017-12-13T21:00:16.032Z,3.67
2017-12-13T21:02:44.167Z,2.30
2017-12-13T21:05:12.772Z,5.30
2017-12-13T21:07:40.934Z,8.53
2017-12-13T21:10:09.112Z,2.73
2017-12-13T21:12:37.239Z,4.40
2017-12-13T21:15:06.198Z,2.83
2017-12-13T21:17:34.343Z,7.20
2017-12-13T21:20:03.276Z,3.40
2017-12-13T21:22:32.197Z,2.97
2017-12-13T21:25:00.346Z,6.40
2017-12-13T21:27:28.525Z,3.50
2017-12-13T21:29:56.668Z,2.57
2017-12-13T21:32:24.819Z,3.03
2017-12-13T21:34:53.738Z,3.30
2017-12-13T21:37:21.879Z,4.27
2017-12-13T21:39:51.203Z,2.10
2017-12-13T21:42:19.344Z,6.90
2017-12-13T21:44:48.479Z,5.63
2017-12-13T21:47:16.618Z,4.07
2017-12-13T21:49:44.793Z,2.87
2017-12-13T21:52:13.669Z,2.97
2017-12-13T21:54:41.825Z,5.50
2017-12-13T21:57:10.534Z,5.50
2017-12-13T21:59:39.644Z,3.17
2017-12-13T22:02:07.790Z,4.23
2017-12-13T22:04:35.928Z,4.43
2017-12-13T22:07:04.094Z,2.87
2017-12-13T22:09:32.241Z,4.90
2017-12-13T22:12:00.401Z,3.40
2017-12-13T22:14:28.636Z,5.20
2017-12-13T22:16:56.777Z,2.87
2017-12-13T22:19:24.916Z,3.57
2017-12-13T22:21:53.086Z,5.10
2017-12-13T22:24:21.240Z,2.40
2017-12-13T22:26:50.076Z,5.50
2017-12-13T22:29:18.215Z,4.97
2017-12-13T22:31:46.331Z,3.27
2017-12-13T22:34:15.272Z,5.03
2017-12-13T22:36:43.394Z,2.30
2017-12-13T22:39:11.557Z,3.47
2017-12-13T22:41:39.693Z,6.10
2017-12-13T22:44:08.633Z,4.40
2017-12-13T22:46:37.548Z,2.00
2017-12-13T22:49:05.692Z,5.63
2017-12-13T22:51:34.634Z,2.80
2017-12-13T22:54:02.741Z,3.27
2017-12-13T22:56:30.884Z,1.60
2017-12-13T22:58:59.203Z,2.53
2017-12-13T23:01:27.345Z,1.77
2017-12-13T23:03:55.487Z,3.67
2017-12-13T23:06:23.638Z,2.50
2017-12-13T23:08:51.772Z,1.23
2017-12-13T23:11:20.789Z,1.90
2017-12-13T23:13:49.701Z,2.00
2017-12-13T23:16:18.605Z,2.80
2017-12-13T23:18:47.513Z,1.60
2017-12-13T23:21:15.681Z,3.33
2017-12-13T23:23:43.823Z,2.37
2017-12-13T23:26:11.959Z,6.30
2017-12-13T23:28:40.877Z,1.63
2017-12-13T23:31:09.016Z,2.80
2017-12-13T23:33:37.179Z,1.30
2017-12-13T23:36:05.290Z,2.50
2017-12-13T23:38:34.218Z,2.83
2017-12-13T23:41:02.360Z,3.13
2017-12-13T23:43:30.935Z,4.70
2017-12-13T23:45:59.057Z,1.57
2017-12-13T23:48:27.203Z,2.10
2017-12-13T23:50:55.330Z,2.13
2017-12-13T23:53:23.492Z,2.63
2017-12-13T23:55:51.660Z,1.50
2017-12-13T23:58:19.795Z,2.00
